ADDS METAR Data INFO
IDs: Format: Raw Decoded Include TAF

Data at: 1515 UTC 23 Oct 2017

KSNC 231455Z AUTO 14004KT 10SM OVC006 18/16 A3032 RMK AO2
KSNC 231435Z AUTO VRB03KT 10SM BKN003 OVC010 18/17 A3033 RMK AO2
KSNC 231415Z AUTO 11004KT 6SM BR OVC001 17/17 A3034 RMK AO2
KSNC 231355Z AUTO 00000KT 1 3/4SM BR OVC001 17/17 A3034 RMK AO2
KSNC 231255Z AUTO 00000KT M1/4SM FG OVC001 16/16 A3035 RMK AO2
KSNC 231235Z AUTO 00000KT 1 1/4SM -RA OVC001 16/16 A3035 RMK AO2 VIS 3/4V2 1/2
KSNC 231215Z AUTO 00000KT 1SM -RA OVC001 16/16 A3035 RMK AO2
KSNC 231155Z AUTO 00000KT 1/4SM FG OVC001 16/16 A3035 RMK AO2
KSNC 231135Z AUTO 00000KT 1/2SM FG OVC001 16/16 A3035 RMK AO2
KSNC 231115Z AUTO 00000KT 5SM BR OVC001 15/15 A3035 RMK AO2
KSNC 231055Z AUTO 00000KT 10SM BKN003 OVC006 15/15 A3035 RMK AO2
KSNC 231035Z AUTO 18003KT 10SM BKN005 OVC008 16/16 A3035 RMK AO2
KSNC 231015Z AUTO 16003KT 10SM BKN005 OVC008 16/16 A3035 RMK AO2
KSNC 230955Z AUTO 17004KT 5SM BR BKN002 OVC006 15/15 A3035 RMK AO2
KSNC 230855Z AUTO 00000KT 3SM BR OVC001 13/13 A3035 RMK AO2
KSNC 230735Z AUTO M1/4SM FG OVC001 11/11 A3036 RMK AO2
KSNC 230715Z AUTO M1/4SM FG OVC001 12/12 A3036 RMK AO2
KSNC 230655Z AUTO 00000KT M1/4SM FG OVC001 12/12 A3037 RMK AO2
KSNC 230555Z AUTO 00000KT M1/4SM FG OVC001 13/13 A3038 RMK AO2
KSNC 230535Z AUTO 00000KT M1/4SM FG OVC001 13/12 A3038 RMK AO2
KSNC 230515Z AUTO M1/4SM FG OVC001 12/12 A3038 RMK AO2
KSNC 230455Z AUTO 00000KT 1SM BR OVC001 12/12 A3039 RMK AO2
KSNC 230335Z AUTO 00000KT 10SM CLR 12/12 A3040 RMK AO2
KSNC 230315Z AUTO 00000KT 10SM CLR 12/12 A3040 RMK AO2
KSNC 230235Z AUTO 00000KT 10SM CLR 12/12 A3040 RMK AO2
KSNC 230215Z AUTO 10SM CLR 13/12 A3040 RMK AO2
KSNC 230155Z AUTO 00000KT 10SM 13/12 A3040 RMK AO2
KSNC 230135Z AUTO 00000KT 10SM CLR 15/13 A3040 RMK AO2
KSNC 230115Z AUTO 20005KT 10SM CLR 15/13 A3040 RMK AO2
KSNC 230055Z AUTO 00000KT 10SM CLR 15/13 A3040 RMK AO2
KSNC 230035Z AUTO 19004KT 10SM CLR 16/13 A3039 RMK AO2
KSNC 230015Z AUTO 19005KT 10SM CLR 16/13 A3039 RMK AO2
KSNC 222355Z AUTO 18005KT 10SM CLR 15/13 A3039 RMK AO2
KSNC 222335Z AUTO 00000KT 10SM CLR 15/13 A3039 RMK AO2
KSNC 222315Z AUTO 00000KT 10SM CLR 16/12 A3039 RMK AO2
KSNC 222255Z AUTO VRB03KT 10SM CLR 17/12 A3038 RMK AO2
KSNC 222235Z AUTO 18004KT 10SM CLR 17/12 A3038 RMK AO2
KSNC 222155Z AUTO 14003KT 10SM CLR 19/12 A3038 RMK AO2
KSNC 222135Z AUTO 00000KT 10SM CLR 20/11 A3038 RMK AO2
KSNC 222115Z AUTO 18004KT 10SM CLR 22/10 A3038 RMK AO2
KSNC 222055Z AUTO VRB03KT 10SM CLR 23/10 A3038 RMK AO2
KSNC 222035Z AUTO VRB05KT 10SM CLR 23/09 A3038 RMK AO2
KSNC 222015Z AUTO 20005KT 10SM CLR 23/09 A3038 RMK AO2
KSNC 221955Z AUTO 18007KT 10SM CLR 24/08 A3038 RMK AO2
KSNC 221915Z AUTO VRB05G11KT 10SM CLR 25/07 A3038 RMK AO2
KSNC 221855Z AUTO 20006KT 10SM CLR 24/03 A3038 RMK AO2
KSNC 221835Z AUTO 20007KT 10SM CLR 25/05 A3038 RMK AO2
KSNC 221815Z AUTO 19008KT 10SM CLR 25/05 A3038 RMK AO2
KSNC 221755Z AUTO 20007KT 10SM CLR 26/05 A3038 RMK AO2
KSNC 221735Z AUTO 19006KT 10SM CLR 25/05 A3039 RMK AO2
KSNC 221715Z AUTO VRB05KT 10SM CLR 25/05 A3039 RMK AO2
KSNC 221655Z AUTO 18008KT 10SM CLR 25/06 A3040 RMK AO2
KSNC 221635Z AUTO VRB03KT 10SM CLR 25/05 A3040 RMK AO2
KSNC 221615Z AUTO 24005KT 10SM CLR 24/03 A3040 RMK AO2
KSNC 221555Z AUTO 22004KT 10SM CLR 24/06 A3041 RMK AO2
KSNC 221535Z AUTO 20003KT 10SM CLR 23/07 A3041 RMK AO2
KSNC 221515Z AUTO 00000KT 10SM CLR 22/10 A3041 RMK AO2
KSNC 221455Z AUTO 00000KT 10SM CLR 22/10 A3042 RMK AO2
KSNC 221435Z AUTO 00000KT 10SM CLR 23/09 A3042 RMK AO2
KSNC 221415Z AUTO 00000KT 10SM CLR 22/09 A3042 RMK AO2
KSNC 221355Z AUTO 00000KT 10SM CLR 21/09 A3042 RMK AO2
KSNC 221335Z AUTO 10SM CLR 20/10 A3043 RMK AO2
KSNC 221315Z AUTO 00000KT 10SM CLR 18/10 A3042 RMK AO2
KSNC 221255Z AUTO 00000KT 10SM CLR 16/09 A3042 RMK AO2
KSNC 221235Z AUTO 00000KT 10SM CLR 13/09 A3042 RMK AO2
KSNC 221215Z AUTO 00000KT 10SM CLR 12/08 A3041 RMK AO2
KSNC 221155Z AUTO 00000KT 10SM CLR 11/08 A3040 RMK AO2
KSNC 221135Z AUTO 00000KT 10SM CLR 11/07 A3039 RMK AO2
KSNC 221035Z AUTO 00000KT 10SM CLR 12/07 A3038 RMK AO2
KSNC 221015Z AUTO 00000KT 10SM CLR 11/08 A3038 RMK AO2
KSNC 220955Z AUTO 00000KT 10SM CLR 12/07 A3037 RMK AO2
KSNC 220935Z AUTO 00000KT 10SM CLR 14/06 A3037 RMK AO2
KSNC 220915Z AUTO 00000KT 10SM CLR 13/06 A3036 RMK AO2
KSNC 220855Z AUTO 00000KT 10SM CLR 13/06 A3036 RMK AO2
KSNC 220835Z AUTO 00000KT 10SM CLR 12/07 A3036 RMK AO2
KSNC 220815Z AUTO 00000KT 10SM CLR 12/08 A3035 RMK AO2
KSNC 220755Z AUTO 31003KT 10SM CLR 11/08 A3035 RMK AO2
KSNC 220735Z AUTO 00000KT 10SM CLR 12/08 A3035 RMK AO2
KSNC 220715Z AUTO 00000KT 10SM CLR 13/08 A3035 RMK AO2
KSNC 220655Z AUTO VRB03KT 10SM CLR 14/07 A3035 RMK AO2
KSNC 220635Z AUTO 26004KT 10SM CLR 14/08 A3035 RMK AO2
KSNC 220615Z AUTO 00000KT 10SM CLR 15/08 A3035 RMK AO2
KSNC 220555Z AUTO 25005KT 10SM CLR 15/09 A3035 RMK AO2
KSNC 220535Z AUTO 25005KT 10SM CLR 15/09 A3036 RMK AO2
KSNC 220515Z AUTO 26005KT 10SM CLR 15/09 A3036 RMK AO2
KSNC 220455Z AUTO 26004KT 10SM CLR 15/09 A3036 RMK AO2
KSNC 220435Z AUTO 25004KT 10SM CLR 15/09 A3035 RMK AO2
KSNC 220415Z AUTO VRB04KT 10SM CLR 15/09 A3035 RMK AO2
KSNC 220355Z AUTO 25006KT 10SM CLR 16/09 A3035 RMK AO2
KSNC 220335Z AUTO 25006KT 10SM CLR 16/09 A3035 RMK AO2